Time;durP1;ratioP1;P1;durP2;ratioP2;P2;SDS_P1;SDS_P2;PMS_P1;PMS_P2;Temp;Humidity;BMP_temperature;BMP_pressure;BME280_temperature;BME280_humidity;BME280_pressure;Samples;Min_cycle;Max_cycle;Signal;HPM_P1;HPM_P2
2023/01/04 00:01:18;;;;;;;;;;;;;;;13.13;53.45;101051.63;4984716;28;6768;-73
2023/01/04 00:03:44;;;;;;;;;;;;;;;13.11;52.75;101045.53;4960522;28;6874;-72
2023/01/04 00:06:12;;;;;;;;;;;;;;;13.16;53.46;101051.81;4963721;28;8712;-74
2023/01/04 00:08:38;;;;;;;;;;;;;;;13.23;52.90;101058.13;4965480;28;7035;-73
2023/01/04 00:11:19;;;;;;;;;;;;;;;13.33;52.43;101052.59;4958617;28;6937;-73
2023/01/04 00:13:47;;;;;;;;;;;;;;;13.36;52.27;101049.28;4959756;28;6820;-72
2023/01/04 00:16:17;;;;;;;;;;;;;;;13.37;52.23;101053.63;4991478;28;7006;-74
2023/01/04 00:18:42;;;;;;;;;;;;;;;13.40;52.62;101047.75;4978803;28;6805;-73
2023/01/04 00:21:14;;;;;;;;;;;;;;;13.47;52.21;101042.97;4965079;28;7801;-73
2023/01/04 00:23:43;;;;;;;;;;;;;;;13.53;52.53;101041.50;4960303;28;7145;-73
2023/01/04 00:26:11;;;;;;;;;;;;;;;13.58;51.94;101047.72;4963412;28;7206;-73
2023/01/04 00:28:38;;;;;;;;;;;;;;;13.58;52.56;101029.72;4959449;28;7000;-73
2023/01/04 00:31:06;;;;;;;;;;;;;;;13.61;52.34;101040.13;4953169;28;6792;-73
2023/01/04 00:33:32;;;;;;;;;;;;;;;13.63;52.21;101028.25;4959538;28;6891;-73
2023/01/04 00:36:07;;;;;;;;;;;;;;;13.59;52.05;101018.59;4974580;28;6978;-73
2023/01/04 00:38:34;;;;;;;;;;;;;;;13.55;52.58;101014.13;4947014;28;7039;-73
2023/01/04 00:41:01;;;;;;;;;;;;;;;13.42;53.50;101018.69;4988622;28;7181;-73
2023/01/04 00:43:27;;;;;;;;;;;;;;;13.32;53.56;101026.75;4988451;28;7072;-73
2023/01/04 00:45:53;;;;;;;;;;;;;;;13.24;54.03;101020.41;4978717;28;6963;-73
2023/01/04 00:48:20;;;;;;;;;;;;;;;13.12;54.52;101011.25;4961051;28;6772;-73
2023/01/04 00:50:48;;;;;;;;;;;;;;;13.05;54.75;101009.25;4958651;28;6970;-73
2023/01/04 00:53:15;;;;;;;;;;;;;;;12.98;55.57;101002.88;4991576;28;7197;-73
2023/01/04 00:55:41;;;;;;;;;;;;;;;12.95;55.14;101004.47;4989400;28;7216;-73
2023/01/04 00:58:07;;;;;;;;;;;;;;;12.87;55.22;101002.41;4964378;28;7103;-73
2023/01/04 01:00:34;;;;;;;;;;;;;;;12.83;56.26;100991.88;4971905;28;6784;-73
2023/01/04 01:03:00;;;;;;;;;;;;;;;12.80;56.43;100982.31;4978316;28;7008;-73
2023/01/04 01:05:26;;;;;;;;;;;;;;;12.83;56.56;100979.88;4964340;28;7011;-73
2023/01/04 01:07:52;;;;;;;;;;;;;;;12.83;56.90;100968.72;4986840;28;6796;-73
2023/01/04 01:10:18;;;;;;;;;;;;;;;12.82;56.38;100970.41;4979315;28;6949;-73
2023/01/04 01:12:44;;;;;;;;;;;;;;;12.83;56.63;100953.28;4978637;28;7180;-74
2023/01/04 01:15:10;;;;;;;;;;;;;;;12.85;57.02;100973.16;4957658;28;6835;-74
2023/01/04 01:17:36;;;;;;;;;;;;;;;12.84;56.39;100980.78;4956783;28;7949;-73
2023/01/04 01:20:04;;;;;;;;;;;;;;;12.80;56.94;100961.75;4955908;28;6840;-73
2023/01/04 01:22:33;;;;;;;;;;;;;;;12.81;57.04;100963.50;4990006;28;6872;-74
2023/01/04 01:24:59;;;;;;;;;;;;;;;12.82;57.37;100969.53;4957784;28;6816;-73
2023/01/04 01:27:24;;;;;;;;;;;;;;;12.82;57.32;100964.41;4960214;28;7209;-73
2023/01/04 01:29:50;;;;;;;;;;;;;;;12.79;57.31;100959.97;4958330;28;7319;-73
2023/01/04 01:32:16;;;;;;;;;;;;;;;12.76;57.77;100957.28;4957774;28;7399;-73
2023/01/04 01:34:41;;;;;;;;;;;;;;;12.78;57.33;100969.38;4958552;28;6795;-74
2023/01/04 01:37:07;;;;;;;;;;;;;;;12.80;57.27;100961.75;4975270;28;6769;-73
2023/01/04 01:39:32;;;;;;;;;;;;;;;12.79;57.52;100957.41;4985715;28;7218;-73
2023/01/04 01:41:58;;;;;;;;;;;;;;;12.80;58.49;100948.03;4975373;28;7546;-74
2023/01/04 01:44:45;;;;;;;;;;;;;;;12.74;58.33;100964.00;4960674;28;7267;-73
2023/01/04 01:47:22;;;;;;;;;;;;;;;12.73;59.06;100947.72;4959296;28;7338;-73
2023/01/04 01:49:53;;;;;;;;;;;;;;;12.74;58.90;100954.63;4963617;28;7010;-73
2023/01/04 01:52:30;;;;;;;;;;;;;;;12.76;58.21;100944.41;4989259;28;7126;-73
2023/01/04 01:55:07;;;;;;;;;;;;;;;12.74;58.45;100958.88;4964839;28;6840;-73
2023/01/04 01:57:36;;;;;;;;;;;;;;;12.74;59.22;100953.72;4958089;28;6804;-73
2023/01/04 02:00:13;;;;;;;;;;;;;;;12.72;59.02;100935.66;4987059;28;6812;-73
2023/01/04 02:02:56;;;;;;;;;;;;;;;12.68;60.11;100935.44;4956986;28;11735;-73
2023/01/04 02:05:23;;;;;;;;;;;;;;;12.68;59.93;100938.00;4960548;28;7175;-73
2023/01/04 02:07:50;;;;;;;;;;;;;;;12.72;60.00;100947.63;4963283;28;6788;-73
2023/01/04 02:10:16;;;;;;;;;;;;;;;12.77;59.32;100941.03;4983601;28;6787;-73
2023/01/04 02:12:45;;;;;;;;;;;;;;;12.82;60.01;100938.69;4960491;28;7111;-73
2023/01/04 02:15:11;;;;;;;;;;;;;;;12.92;59.06;100941.72;4982655;28;6808;-73
2023/01/04 02:18:08;;;;;;;;;;;;;;;13.06;58.56;100931.22;4963832;28;6971;-74
2023/01/04 02:20:50;;;;;;;;;;;;;;;13.10;59.08;100937.41;4983674;28;7068;-73
2023/01/04 02:24:15;;;;;;;;;;;;;;;13.11;59.28;100919.44;4958924;28;6846;-73
2023/01/04 02:27:22;;;;;;;;;;;;;;;13.10;59.19;100930.53;4951541;28;6815;-73
2023/01/04 02:30:54;;;;;;;;;;;;;;;13.15;59.13;100911.06;4964036;28;6823;-73
2023/01/04 02:33:50;;;;;;;;;;;;;;;13.17;58.62;100932.59;4913660;29;11257;-74
2023/01/04 02:36:33;;;;;;;;;;;;;;;13.30;58.92;100922.84;4911149;29;6877;-74
2023/01/04 02:39:08;;;;;;;;;;;;;;;13.36;58.78;100915.41;4953292;28;6789;-73
2023/01/04 02:41:56;;;;;;;;;;;;;;;13.42;58.72;100920.84;4975161;28;6879;-74
2023/01/04 02:44:53;;;;;;;;;;;;;;;13.54;57.56;100911.94;4961416;28;6824;-73
2023/01/04 02:50:31;;;;;;;;;;;;;;;13.63;58.15;100891.72;4959049;28;6792;-74
2023/01/04 02:53:11;;;;;;;;;;;;;;;13.64;58.04;100908.94;4961766;28;7325;-73
2023/01/04 02:56:34;;;;;;;;;;;;;;;13.70;57.78;100886.00;4958679;28;7218;-73
2023/01/04 02:59:08;;;;;;;;;;;;;;;13.73;57.61;100895.56;4969993;28;7181;-74
2023/01/04 03:08:57;;;;;;;;;;;;;;;13.76;57.54;100872.50;4956451;28;6984;-74
2023/01/04 03:14:46;;;;;;;;;;;;;;;13.85;56.85;100864.31;4954674;28;6824;-73
2023/01/04 03:17:18;;;;;;;;;;;;;;;13.85;57.30;100874.59;4976199;28;6816;-73
2023/01/04 03:19:53;;;;;;;;;;;;;;;13.84;56.89;100857.38;4954811;28;6804;-73
2023/01/04 03:37:15;;;;;;;;;;;;;;;13.37;58.37;100849.34;4973621;28;6812;-73
2023/01/04 03:49:38;;;;;;;;;;;;;;;13.22;60.18;100853.00;4955105;28;6812;-73
2023/01/04 03:52:08;;;;;;;;;;;;;;;13.30;60.01;100831.06;4959312;28;6800;-73
2023/01/04 03:54:43;;;;;;;;;;;;;;;13.39;59.75;100812.56;4959268;28;6959;-73
2023/01/04 03:57:10;;;;;;;;;;;;;;;13.44;59.27;100829.13;4982482;28;7031;-74
2023/01/04 03:59:44;;;;;;;;;;;;;;;13.52;59.64;100815.69;4962900;28;6816;-74
2023/01/04 04:02:13;;;;;;;;;;;;;;;13.56;59.56;100818.44;4976483;28;7293;-74
2023/01/04 04:10:13;;;;;;;;;;;;;;;13.60;58.93;100784.31;4971074;28;6797;-74
2023/01/04 04:12:39;;;;;;;;;;;;;;;13.65;58.88;100815.41;4967712;28;6768;-74
2023/01/04 04:15:05;;;;;;;;;;;;;;;13.71;59.19;100819.94;4959621;28;6772;-74
2023/01/04 04:17:31;;;;;;;;;;;;;;;13.78;58.51;100815.91;4989221;28;6896;-74
2023/01/04 04:19:56;;;;;;;;;;;;;;;13.81;58.77;100816.91;4988194;28;7304;-74
2023/01/04 04:22:22;;;;;;;;;;;;;;;13.92;57.86;100808.75;4962740;28;6966;-74
2023/01/04 04:24:48;;;;;;;;;;;;;;;13.93;58.65;100805.34;4941988;28;7022;-74
2023/01/04 04:27:13;;;;;;;;;;;;;;;13.97;58.35;100805.53;4958961;28;6776;-74
2023/01/04 04:29:39;;;;;;;;;;;;;;;14.00;57.75;100813.41;4954343;28;6776;-74
2023/01/04 04:32:04;;;;;;;;;;;;;;;14.06;57.83;100778.38;4972065;28;6927;-74
2023/01/04 04:34:30;;;;;;;;;;;;;;;14.07;57.49;100793.91;4955702;28;6768;-74
2023/01/04 04:36:56;;;;;;;;;;;;;;;14.10;58.10;100793.13;4951787;28;7087;-74
2023/01/04 04:39:21;;;;;;;;;;;;;;;14.14;57.66;100784.72;4955777;28;6811;-74
2023/01/04 04:41:47;;;;;;;;;;;;;;;14.16;57.50;100793.38;4957116;28;6764;-74
2023/01/04 04:44:17;;;;;;;;;;;;;;;14.19;57.51;100784.91;4953998;28;10094;-76
2023/01/04 04:46:44;;;;;;;;;;;;;;;14.15;57.29;100774.47;4990088;28;6797;-75
2023/01/04 04:49:12;;;;;;;;;;;;;;;14.19;57.91;100772.88;4957798;28;8387;-74
2023/01/04 04:51:39;;;;;;;;;;;;;;;14.19;57.89;100778.03;4990518;28;6804;-74
2023/01/04 04:54:08;;;;;;;;;;;;;;;14.16;57.57;100762.47;4996001;28;7134;-74
2023/01/04 04:56:38;;;;;;;;;;;;;;;14.16;57.70;100759.88;4958817;28;6792;-74
2023/01/04 04:59:04;;;;;;;;;;;;;;;14.18;58.15;100750.50;4977064;28;10495;-74
2023/01/04 05:01:30;;;;;;;;;;;;;;;14.23;58.21;100754.16;4955590;28;6872;-74
2023/01/04 05:03:56;;;;;;;;;;;;;;;14.26;57.55;100746.53;4973947;28;7261;-74
2023/01/04 05:06:22;;;;;;;;;;;;;;;14.27;57.77;100744.84;4956175;28;6808;-74
2023/01/04 05:08:47;;;;;;;;;;;;;;;14.26;57.78;100738.78;4958444;28;6919;-75
2023/01/04 05:11:14;;;;;;;;;;;;;;;14.27;57.60;100735.38;4958301;28;6796;-74
2023/01/04 05:13:40;;;;;;;;;;;;;;;14.27;58.10;100734.53;4951791;28;7910;-74
2023/01/04 05:16:09;;;;;;;;;;;;;;;14.31;57.68;100736.38;4952353;28;6776;-74
2023/01/04 05:18:35;;;;;;;;;;;;;;;14.33;58.06;100739.91;4976076;28;8500;-74
2023/01/04 05:21:01;;;;;;;;;;;;;;;14.37;58.20;100736.63;4963394;28;6788;-74
2023/01/04 05:23:27;;;;;;;;;;;;;;;14.39;57.59;100718.63;4961471;28;6800;-74
2023/01/04 05:25:58;;;;;;;;;;;;;;;14.40;57.14;100729.00;4962203;28;7102;-74
2023/01/04 05:28:24;;;;;;;;;;;;;;;14.44;58.05;100732.56;4959571;28;7015;-74
2023/01/04 05:30:54;;;;;;;;;;;;;;;14.47;57.23;100712.06;4958134;28;6788;-74
2023/01/04 05:33:29;;;;;;;;;;;;;;;14.48;57.70;100728.41;4976585;28;6984;-74
2023/01/04 05:35:59;;;;;;;;;;;;;;;14.50;57.17;100712.19;4967940;28;7853;-74
2023/01/04 05:38:25;;;;;;;;;;;;;;;14.51;57.86;100715.63;4975021;28;6932;-74
2023/01/04 05:40:52;;;;;;;;;;;;;;;14.55;57.58;100705.47;4984132;28;6984;-74
2023/01/04 05:43:21;;;;;;;;;;;;;;;14.52;57.26;100715.69;4989474;28;6799;-74
2023/01/04 05:45:51;;;;;;;;;;;;;;;14.58;57.00;100713.34;4989838;28;6964;-74
2023/01/04 05:48:17;;;;;;;;;;;;;;;14.59;58.06;100714.22;4962110;28;6788;-74
2023/01/04 05:50:44;;;;;;;;;;;;;;;14.62;57.61;100710.88;4961381;28;6789;-74
2023/01/04 05:53:12;;;;;;;;;;;;;;;14.63;57.58;100697.16;4951168;28;6840;-74
2023/01/04 05:55:38;;;;;;;;;;;;;;;14.67;57.59;100714.47;4932037;28;6869;-74
2023/01/04 05:58:04;;;;;;;;;;;;;;;14.62;56.71;100693.69;4927985;28;6834;-75
2023/01/04 06:00:29;;;;;;;;;;;;;;;14.61;57.35;100697.09;4934889;28;6963;-74
2023/01/04 06:02:55;;;;;;;;;;;;;;;14.65;57.45;100700.66;4927056;28;6788;-74
2023/01/04 06:05:23;;;;;;;;;;;;;;;14.67;57.48;100705.06;4943832;28;7114;-74
2023/01/04 06:07:50;;;;;;;;;;;;;;;14.74;57.91;100690.69;4943387;28;6816;-74
2023/01/04 06:10:16;;;;;;;;;;;;;;;14.77;56.61;100695.97;4926247;28;6843;-74
2023/01/04 06:12:42;;;;;;;;;;;;;;;14.81;57.26;100681.47;4928016;28;7194;-74
2023/01/04 06:15:09;;;;;;;;;;;;;;;14.83;57.15;100674.69;4934353;28;7234;-74
2023/01/04 06:17:35;;;;;;;;;;;;;;;14.84;56.94;100685.03;4952327;28;7051;-74
2023/01/04 06:20:02;;;;;;;;;;;;;;;14.86;56.99;100687.69;4924937;28;8538;-74
2023/01/04 06:22:28;;;;;;;;;;;;;;;14.94;56.78;100683.66;4922490;29;6960;-74
2023/01/04 06:24:54;;;;;;;;;;;;;;;14.94;57.04;100668.19;4926445;28;7008;-74
2023/01/04 06:27:20;;;;;;;;;;;;;;;14.94;56.68;100675.94;4935700;28;6780;-74
2023/01/04 06:29:45;;;;;;;;;;;;;;;14.99;57.52;100681.25;4953747;28;6856;-74
2023/01/04 06:32:11;;;;;;;;;;;;;;;15.00;56.84;100672.69;4924193;28;6808;-74
2023/01/04 06:34:37;;;;;;;;;;;;;;;14.99;57.25;100676.09;4927603;28;6773;-74
2023/01/04 06:37:04;;;;;;;;;;;;;;;14.99;57.00;100681.25;4941212;28;6832;-74
2023/01/04 06:39:30;;;;;;;;;;;;;;;14.98;56.83;100689.81;4928552;28;6863;-74
2023/01/04 06:41:55;;;;;;;;;;;;;;;15.00;56.66;100685.56;4928780;28;6772;-74
2023/01/04 06:44:21;;;;;;;;;;;;;;;15.02;56.52;100681.34;4920480;28;7574;-74
2023/01/04 06:46:46;;;;;;;;;;;;;;;15.00;57.01;100683.00;4955209;28;6971;-74
2023/01/04 06:49:13;;;;;;;;;;;;;;;15.02;57.02;100689.09;4927025;28;7194;-74
2023/01/04 06:51:38;;;;;;;;;;;;;;;15.05;56.74;100691.75;4940074;28;6780;-74
2023/01/04 06:54:04;;;;;;;;;;;;;;;15.02;56.49;100676.19;4962790;28;6796;-74
2023/01/04 06:56:31;;;;;;;;;;;;;;;15.01;56.89;100689.91;4962643;28;6808;-74
2023/01/04 06:58:57;;;;;;;;;;;;;;;15.07;57.46;100674.66;4959879;28;6864;-74
2023/01/04 07:01:22;;;;;;;;;;;;;;;15.11;56.68;100660.13;4958106;28;6860;-74
2023/01/04 07:03:48;;;;;;;;;;;;;;;15.10;57.00;100677.31;4977691;28;7201;-74
2023/01/04 07:06:14;;;;;;;;;;;;;;;15.14;57.28;100676.59;4958417;28;6792;-75
2023/01/04 07:08:39;;;;;;;;;;;;;;;15.20;56.64;100695.72;4957412;28;6835;-74
2023/01/04 07:11:05;;;;;;;;;;;;;;;15.22;56.92;100697.53;4991039;28;6979;-74
2023/01/04 07:13:32;;;;;;;;;;;;;;;15.24;56.59;100689.81;4940970;28;7121;-74
2023/01/04 07:15:57;;;;;;;;;;;;;;;15.25;56.63;100666.63;4987012;28;8408;-74
2023/01/04 07:18:23;;;;;;;;;;;;;;;15.23;56.40;100675.16;4944948;28;6968;-74
2023/01/04 07:20:49;;;;;;;;;;;;;;;15.23;57.06;100682.88;4987423;28;6772;-74
2023/01/04 07:23:14;;;;;;;;;;;;;;;15.24;57.01;100657.13;4958908;28;6757;-74
2023/01/04 07:25:40;;;;;;;;;;;;;;;15.22;56.46;100665.66;4963458;28;6764;-74
2023/01/04 07:28:06;;;;;;;;;;;;;;;15.20;56.42;100664.72;4979959;28;7237;-74
2023/01/04 07:30:31;;;;;;;;;;;;;;;15.19;57.15;100663.84;4957511;28;6792;-75
2023/01/04 07:32:57;;;;;;;;;;;;;;;15.17;56.80;100664.63;4990757;28;7154;-74
2023/01/04 07:35:23;;;;;;;;;;;;;;;15.18;57.04;100658.63;4961931;28;7034;-74
2023/01/04 07:37:49;;;;;;;;;;;;;;;15.13;57.12;100649.03;4991812;28;6882;-74
2023/01/04 07:40:15;;;;;;;;;;;;;;;15.12;57.42;100638.66;4993308;28;7174;-75
2023/01/04 07:42:41;;;;;;;;;;;;;;;15.10;57.40;100664.41;4962873;28;6776;-74
2023/01/04 07:45:07;;;;;;;;;;;;;;;15.10;57.53;100676.44;4948227;28;6962;-74
2023/01/04 07:47:33;;;;;;;;;;;;;;;15.07;57.41;100673.75;4993982;28;6800;-74
2023/01/04 07:49:59;;;;;;;;;;;;;;;15.05;57.70;100671.09;4965149;28;6860;-74
2023/01/04 07:52:26;;;;;;;;;;;;;;;14.98;58.16;100645.94;4958874;28;7013;-74
2023/01/04 07:54:52;;;;;;;;;;;;;;;14.95;57.52;100664.78;4963250;28;7236;-74
2023/01/04 07:57:18;;;;;;;;;;;;;;;14.93;58.38;100629.41;4962004;28;6804;-74
2023/01/04 07:59:43;;;;;;;;;;;;;;;14.94;58.71;100663.03;4967117;28;6826;-74
2023/01/04 08:02:11;;;;;;;;;;;;;;;14.95;58.54;100675.09;4977675;28;7168;-74
2023/01/04 08:04:37;;;;;;;;;;;;;;;14.95;59.04;100663.88;4984927;28;6788;-74
2023/01/04 08:07:04;;;;;;;;;;;;;;;15.00;58.34;100662.34;4958612;28;6792;-74
2023/01/04 08:09:29;;;;;;;;;;;;;;;14.99;58.61;100660.59;4966271;28;6784;-74
2023/01/04 08:11:55;;;;;;;;;;;;;;;14.98;59.32;100653.69;4982593;28;6946;-74
2023/01/04 08:14:22;;;;;;;;;;;;;;;14.97;58.43;100651.94;4942381;28;7105;-74
2023/01/04 08:16:47;;;;;;;;;;;;;;;14.92;58.92;100650.88;4961895;28;6808;-74
2023/01/04 08:19:17;;;;;;;;;;;;;;;14.81;59.15;100661.72;4957993;28;7404;-74
2023/01/04 08:21:43;;;;;;;;;;;;;;;14.74;59.82;100646.84;4989448;28;7155;-74
2023/01/04 08:24:16;;;;;;;;;;;;;;;14.70;59.40;100652.69;4944495;28;7007;-74
2023/01/04 08:26:42;;;;;;;;;;;;;;;14.63;60.20;100650.72;4983030;28;6999;-74
2023/01/04 08:29:09;;;;;;;;;;;;;;;14.63;60.31;100642.97;4963403;28;6780;-74
2023/01/04 08:31:36;;;;;;;;;;;;;;;14.65;60.29;100649.06;4954664;28;6990;-74
2023/01/04 08:34:05;;;;;;;;;;;;;;;14.67;59.85;100653.47;4980349;28;6835;-74
2023/01/04 08:36:34;;;;;;;;;;;;;;;14.71;59.90;100644.13;4964767;28;7071;-74
2023/01/04 08:39:05;;;;;;;;;;;;;;;14.76;59.96;100637.44;4946723;28;6979;-74
2023/01/04 08:41:49;;;;;;;;;;;;;;;14.82;59.97;100653.16;4964632;28;7087;-74
2023/01/04 08:44:16;;;;;;;;;;;;;;;14.93;59.73;100635.47;4967420;28;8710;-74
2023/01/04 08:46:42;;;;;;;;;;;;;;;15.01;59.79;100638.28;4957898;28;6788;-74
2023/01/04 08:49:07;;;;;;;;;;;;;;;15.06;59.03;100626.41;4961944;28;6785;-74
2023/01/04 08:51:33;;;;;;;;;;;;;;;15.14;58.74;100637.88;4983403;28;6950;-74
2023/01/04 08:53:59;;;;;;;;;;;;;;;15.28;58.61;100638.31;4958215;28;7446;-75
2023/01/04 08:56:24;;;;;;;;;;;;;;;15.34;58.10;100650.53;4965028;28;6957;-74
2023/01/04 08:58:50;;;;;;;;;;;;;;;15.41;58.15;100644.75;4963519;28;6768;-75
2023/01/04 09:01:16;;;;;;;;;;;;;;;15.49;58.24;100642.41;4964022;28;6991;-74
2023/01/04 09:03:41;;;;;;;;;;;;;;;15.55;57.63;100634.88;4982495;28;6958;-74
2023/01/04 09:06:11;;;;;;;;;;;;;;;15.58;58.17;100639.25;4961201;28;6938;-74
2023/01/04 09:08:39;;;;;;;;;;;;;;;15.65;57.80;100635.16;4976949;28;7230;-74
2023/01/04 09:11:07;;;;;;;;;;;;;;;15.65;57.62;100625.72;4980399;28;8045;-74
2023/01/04 09:13:35;;;;;;;;;;;;;;;15.66;57.62;100630.03;4960967;28;7160;-74
2023/01/04 09:16:02;;;;;;;;;;;;;;;15.73;57.48;100630.22;4960832;28;6860;-74
2023/01/04 09:18:29;;;;;;;;;;;;;;;15.75;56.83;100626.84;4978285;28;6975;-74
2023/01/04 09:20:56;;;;;;;;;;;;;;;15.80;57.14;100601.16;4957576;28;7844;-74
2023/01/04 09:23:22;;;;;;;;;;;;;;;15.81;57.12;100619.28;4965635;28;6788;-75
2023/01/04 09:25:48;;;;;;;;;;;;;;;15.93;56.72;100611.06;4990379;28;6975;-74
2023/01/04 09:28:14;;;;;;;;;;;;;;;15.91;56.51;100619.59;4980118;28;7309;-74
2023/01/04 09:30:39;;;;;;;;;;;;;;;15.85;57.01;100625.44;4960775;28;7238;-74
2023/01/04 09:33:05;;;;;;;;;;;;;;;15.78;57.27;100616.59;4965197;28;6855;-74
2023/01/04 09:35:31;;;;;;;;;;;;;;;15.75;56.79;100619.09;4955615;28;7372;-74
2023/01/04 09:37:56;;;;;;;;;;;;;;;15.77;57.16;100629.50;4959206;28;6939;-74
2023/01/04 09:40:42;;;;;;;;;;;;;;;15.77;57.66;100635.53;4960915;28;6780;-74
2023/01/04 09:43:19;;;;;;;;;;;;;;;15.79;57.28;100641.63;4989187;28;6870;-74
2023/01/04 09:45:52;;;;;;;;;;;;;;;15.85;57.14;100633.19;4988015;28;8244;-74
2023/01/04 09:48:26;;;;;;;;;;;;;;;15.87;57.20;100634.09;4963283;28;7148;-74
2023/01/04 09:51:04;;;;;;;;;;;;;;;15.84;57.43;100649.53;4994941;28;7248;-74
2023/01/04 09:53:53;;;;;;;;;;;;;;;15.75;57.70;100651.84;4966350;28;6984;-75
2023/01/04 09:56:32;;;;;;;;;;;;;;;15.67;57.34;100642.13;4962742;28;6903;-74
2023/01/04 09:59:05;;;;;;;;;;;;;;;15.56;57.96;100664.19;4990978;28;6815;-74
2023/01/04 10:02:03;;;;;;;;;;;;;;;15.38;58.48;100670.50;4980688;28;6941;-74
2023/01/04 10:04:49;;;;;;;;;;;;;;;15.31;59.00;100655.63;4965227;28;7074;-74
2023/01/04 10:07:29;;;;;;;;;;;;;;;15.24;59.26;100656.25;4960023;28;6792;-74
2023/01/04 10:09:56;;;;;;;;;;;;;;;15.18;59.21;100662.06;4992086;28;7178;-74
2023/01/04 10:13:04;;;;;;;;;;;;;;;15.17;59.02;100656.88;4977529;28;6804;-74
2023/01/04 10:15:56;;;;;;;;;;;;;;;15.05;59.94;100647.88;4961565;28;7168;-74
2023/01/04 10:18:45;;;;;;;;;;;;;;;15.05;60.68;100660.78;4963437;28;6867;-74
2023/01/04 10:21:51;;;;;;;;;;;;;;;15.04;60.84;100648.72;4960592;28;7195;-74
2023/01/04 10:25:04;;;;;;;;;;;;;;;15.04;60.62;100655.59;4958574;28;6823;-74
2023/01/04 10:27:58;;;;;;;;;;;;;;;15.06;60.88;100656.50;4964567;28;6834;-74
2023/01/04 10:31:11;;;;;;;;;;;;;;;15.05;61.28;100639.28;4962163;28;7031;-74
2023/01/04 10:33:53;;;;;;;;;;;;;;;15.07;61.56;100651.41;4957919;28;7206;-73
2023/01/04 10:36:30;;;;;;;;;;;;;;;15.07;61.36;100640.19;4965494;28;7011;-74
2023/01/04 10:39:19;;;;;;;;;;;;;;;15.08;61.09;100640.25;4990137;28;7224;-74
2023/01/04 10:42:37;;;;;;;;;;;;;;;15.08;61.44;100623.88;4963923;28;6876;-73
2023/01/04 10:45:14;;;;;;;;;;;;;;;15.09;61.72;100626.53;4957328;28;6824;-74
2023/01/04 10:48:15;;;;;;;;;;;;;;;15.12;62.09;100621.44;4955601;28;7023;-74
2023/01/04 10:50:56;;;;;;;;;;;;;;;15.11;62.15;100622.28;4956694;28;7701;-73
2023/01/04 10:53:37;;;;;;;;;;;;;;;15.12;62.13;100615.44;4959830;28;7840;-73
2023/01/04 10:56:17;;;;;;;;;;;;;;;15.13;62.25;100618.03;4989140;28;7091;-73
2023/01/04 10:58:49;;;;;;;;;;;;;;;15.19;61.70;100616.50;4967225;28;6830;-74
2023/01/04 11:01:28;;;;;;;;;;;;;;;15.22;62.01;100609.75;4967653;28;7000;-74
2023/01/04 11:04:22;;;;;;;;;;;;;;;15.19;61.79;100588.09;4990524;28;7213;-73
2023/01/04 11:07:06;;;;;;;;;;;;;;;15.16;61.79;100599.19;4959877;28;6796;-74
2023/01/04 11:10:08;;;;;;;;;;;;;;;15.17;62.53;100588.03;4988944;28;6883;-74
2023/01/04 11:12:34;;;;;;;;;;;;;;;15.17;62.51;100585.47;4941677;28;6884;-74
2023/01/04 11:15:00;;;;;;;;;;;;;;;15.17;62.72;100593.19;4961731;28;6776;-73
2023/01/04 11:17:26;;;;;;;;;;;;;;;15.23;62.71;100585.66;4966448;28;6796;-73
2023/01/04 11:19:52;;;;;;;;;;;;;;;15.26;62.47;100572.84;4964029;28;7001;-74
2023/01/04 11:22:45;;;;;;;;;;;;;;;15.29;62.35;100592.72;4965119;28;6788;-74
2023/01/04 11:25:17;;;;;;;;;;;;;;;15.27;62.55;100573.75;4972470;28;6796;-73
2023/01/04 11:27:52;;;;;;;;;;;;;;;15.32;62.24;100581.63;4980156;28;6812;-73
2023/01/04 11:30:24;;;;;;;;;;;;;;;15.31;62.50;100580.72;4979740;28;6976;-74
2023/01/04 11:33:04;;;;;;;;;;;;;;;15.32;62.53;100550.63;4966235;28;7164;-73
2023/01/04 11:35:47;;;;;;;;;;;;;;;15.31;62.96;100569.56;4966862;28;6887;-73
2023/01/04 11:38:19;;;;;;;;;;;;;;;15.34;63.03;100570.50;4982722;28;7199;-73
2023/01/04 11:41:14;;;;;;;;;;;;;;;15.36;63.38;100563.69;4950093;28;7003;-73
2023/01/04 11:43:54;;;;;;;;;;;;;;;15.39;62.94;100552.56;4981104;28;6807;-74
2023/01/04 11:46:23;;;;;;;;;;;;;;;15.40;62.74;100568.13;4966384;28;6796;-73
2023/01/04 11:48:50;;;;;;;;;;;;;;;15.45;62.52;100557.94;4990465;28;8097;-74
2023/01/04 11:51:30;;;;;;;;;;;;;;;15.48;62.71;100560.59;5000469;28;6990;-74
2023/01/04 11:53:58;;;;;;;;;;;;;;;15.48;63.21;100562.31;4965107;28;6812;-74
2023/01/04 11:56:28;;;;;;;;;;;;;;;15.47;62.90;100566.59;4960759;28;6991;-74
2023/01/04 11:59:14;;;;;;;;;;;;;;;15.48;62.64;100570.91;4990605;28;6795;-74
2023/01/04 12:01:48;;;;;;;;;;;;;;;15.47;62.92;100542.47;4980903;28;7112;-74
2023/01/04 12:04:23;;;;;;;;;;;;;;;15.50;62.57;100583.88;4989762;28;6776;-73
2023/01/04 12:06:59;;;;;;;;;;;;;;;15.52;62.68;100566.72;4959047;28;6795;-74
2023/01/04 12:09:25;;;;;;;;;;;;;;;15.46;62.89;100563.97;4975488;28;6852;-74
2023/01/04 12:11:55;;;;;;;;;;;;;;;15.46;63.11;100559.69;4964022;28;6844;-74
2023/01/04 12:14:31;;;;;;;;;;;;;;;15.44;63.35;100545.84;4991426;28;6788;-74
2023/01/04 12:17:28;;;;;;;;;;;;;;;15.47;63.19;100557.97;4978445;28;7119;-75
2023/01/04 12:19:56;;;;;;;;;;;;;;;15.48;62.89;100559.72;4982130;28;6866;-74
2023/01/04 12:22:37;;;;;;;;;;;;;;;15.51;62.74;100557.22;4962973;28;6784;-74
2023/01/04 12:25:25;;;;;;;;;;;;;;;15.50;63.10;100540.88;4963333;28;6812;-74
2023/01/04 12:27:54;;;;;;;;;;;;;;;15.47;63.04;100538.19;4984026;28;6894;-74
2023/01/04 12:30:44;;;;;;;;;;;;;;;15.47;62.98;100545.06;4964478;28;6824;-74
2023/01/04 12:33:28;;;;;;;;;;;;;;;15.48;63.39;100539.94;4993125;28;7043;-74
2023/01/04 12:36:08;;;;;;;;;;;;;;;15.51;62.94;100546.91;4962447;28;6772;-74
2023/01/04 12:38:53;;;;;;;;;;;;;;;15.49;63.76;100533.94;4960334;28;6876;-74
2023/01/04 12:41:59;;;;;;;;;;;;;;;15.49;63.82;100533.06;4958908;28;7234;-73
2023/01/04 12:44:42;;;;;;;;;;;;;;;15.47;63.62;100529.56;4991441;28;7919;-74
2023/01/04 12:50:30;;;;;;;;;;;;;;;15.47;64.12;100530.44;4962464;28;6844;-74
2023/01/04 12:53:03;;;;;;;;;;;;;;;15.46;63.91;100530.41;4978242;28;6885;-74
2023/01/04 12:55:32;;;;;;;;;;;;;;;15.48;63.31;100533.91;4990156;28;6962;-74
2023/01/04 12:58:22;;;;;;;;;;;;;;;15.50;63.84;100516.75;4962530;28;6918;-74
2023/01/04 13:00:50;;;;;;;;;;;;;;;15.49;63.96;100523.59;4962004;28;6831;-73
2023/01/04 13:03:15;;;;;;;;;;;;;;;15.52;63.40;100515.06;4958788;28;6800;-73
2023/01/04 13:05:57;;;;;;;;;;;;;;;15.51;63.85;100492.66;4989834;28;7274;-73
2023/01/04 13:08:24;;;;;;;;;;;;;;;15.50;64.15;100498.66;4960685;28;6804;-73
2023/01/04 13:10:54;;;;;;;;;;;;;;;15.49;63.98;100513.25;4991745;28;6784;-73
2023/01/04 13:13:51;;;;;;;;;;;;;;;15.53;64.18;100514.22;4961680;28;6812;-73
2023/01/04 13:16:46;;;;;;;;;;;;;;;15.55;63.83;100517.75;4961612;28;7009;-72
2023/01/04 13:19:21;;;;;;;;;;;;;;;15.53;63.82;100520.28;4986781;28;7011;-73
2023/01/04 13:21:48;;;;;;;;;;;;;;;15.59;64.27;100509.25;4987883;28;8053;-73
2023/01/04 13:24:29;;;;;;;;;;;;;;;15.62;64.06;100514.50;4963320;28;7164;-73
2023/01/04 13:26:56;;;;;;;;;;;;;;;15.61;63.74;100510.16;4964474;28;7197;-73
2023/01/04 13:29:24;;;;;;;;;;;;;;;15.62;63.91;100509.34;4966350;28;6788;-73
2023/01/04 13:32:24;;;;;;;;;;;;;;;15.65;64.21;100519.78;4966157;28;8089;-73
2023/01/04 13:35:16;;;;;;;;;;;;;;;15.74;63.89;100515.69;4969317;28;7002;-73
2023/01/04 13:37:49;;;;;;;;;;;;;;;15.80;63.88;100508.13;4962213;28;6869;-73
2023/01/04 13:40:34;;;;;;;;;;;;;;;15.86;63.55;100508.31;4979464;28;6979;-73
2023/01/04 13:43:49;;;;;;;;;;;;;;;15.88;63.38;100516.06;4982456;28;6999;-73
2023/01/04 13:46:24;;;;;;;;;;;;;;;15.95;63.34;100503.41;4951001;28;6987;-73
2023/01/04 13:48:58;;;;;;;;;;;;;;;16.04;63.16;100518.28;4982943;28;7007;-73
2023/01/04 13:51:35;;;;;;;;;;;;;;;16.12;62.97;100504.72;4980055;28;6861;-73
2023/01/04 13:54:16;;;;;;;;;;;;;;;16.13;62.80;100491.84;4989634;28;7120;-73
2023/01/04 13:56:41;;;;;;;;;;;;;;;16.18;62.79;100498.00;4961125;28;6824;-73
2023/01/04 13:59:08;;;;;;;;;;;;;;;16.19;62.61;100493.72;4963628;28;6776;-73
2023/01/04 14:01:42;;;;;;;;;;;;;;;16.15;62.59;100479.81;4964029;28;6822;-73